TimeCST,TemperatureF,Dew PointF,Humidity,Sea Level PressureIn,VisibilityMPH,Wind Direction,Wind SpeedMPH,Gust SpeedMPH,PrecipitationIn,Events,Conditions,WindDirDegrees,DateUTC
12:54 AM,23.0,17.1,78,30.39,10.0,NNW,10.4,-,N/A,,Scattered Clouds,340,2013-02-15 06:54:00
1:54 AM,19.9,15.1,81,30.40,10.0,North,8.1,-,N/A,,Clear,350,2013-02-15 07:54:00
2:54 AM,18.0,14.0,84,30.40,10.0,North,8.1,-,N/A,,Clear,360,2013-02-15 08:54:00
3:54 AM,18.0,14.0,84,30.40,10.0,NNW,6.9,-,N/A,,Partly Cloudy,330,2013-02-15 09:54:00
4:54 AM,18.0,12.9,81,30.41,10.0,NW,4.6,-,N/A,,Clear,320,2013-02-15 10:54:00
5:54 AM,16.0,12.0,84,30.44,10.0,WNW,4.6,-,N/A,,Clear,290,2013-02-15 11:54:00
6:54 AM,16.0,12.0,84,30.44,10.0,Calm,Calm,-,N/A,,Clear,0,2013-02-15 12:54:00
7:54 AM,15.1,12.0,88,30.45,10.0,West,4.6,-,N/A,,Mostly Cloudy,260,2013-02-15 13:54:00
8:54 AM,21.0,15.1,78,30.44,10.0,WNW,5.8,-,N/A,,Mostly Cloudy,290,2013-02-15 14:54:00
9:54 AM,26.1,18.0,71,30.43,10.0,WSW,4.6,-,N/A,,Clear,250,2013-02-15 15:54:00
10:54 AM,33.1,17.1,52,30.41,10.0,West,6.9,-,N/A,,Scattered Clouds,260,2013-02-15 16:54:00
11:54 AM,34.0,15.1,46,30.41,10.0,WNW,5.8,-,N/A,,Overcast,290,2013-02-15 17:54:00
12:54 PM,35.1,14.0,42,30.40,10.0,NNW,5.8,-,N/A,,Overcast,340,2013-02-15 18:54:00
1:54 PM,39.0,14.0,36,30.36,10.0,Variable,6.9,-,N/A,,Clear,0,2013-02-15 19:54:00
2:54 PM,39.9,15.1,36,30.33,10.0,Variable,3.5,-,N/A,,Scattered Clouds,0,2013-02-15 20:54:00
3:54 PM,42.1,14.0,32,30.31,10.0,NW,8.1,-,N/A,,Overcast,320,2013-02-15 21:54:00
4:54 PM,39.0,19.9,46,30.34,10.0,North,25.3,32.2,N/A,,Overcast,360,2013-02-15 22:54:00
5:54 PM,33.1,26.1,75,30.37,10.0,North,15.0,-,N/A,,Mostly Cloudy,360,2013-02-15 23:54:00
6:54 PM,27.0,21.9,81,30.39,10.0,North,8.1,-,N/A,,Clear,10,2013-02-16 00:54:00
7:54 PM,26.1,24.1,92,30.42,10.0,NNE,10.4,-,N/A,,Clear,30,2013-02-16 01:54:00
8:11 PM,26.6,24.8,93,30.32,10.0,NNE,6.9,-,N/A,,Partly Cloudy,20,2013-02-16 02:11:00
8:54 PM,21.9,21.0,96,30.43,10.0,North,8.1,-,N/A,,Clear,10,2013-02-16 02:54:00
9:54 PM,21.0,19.0,92,30.45,10.0,WNW,3.5,-,N/A,,Clear,300,2013-02-16 03:54:00
10:54 PM,23.0,16.0,74,30.43,10.0,NNE,5.8,-,N/A,,Mostly Cloudy,20,2013-02-16 04:54:00
11:54 PM,21.0,14.0,74,30.44,10.0,NW,4.6,-,N/A,,Clear,310,2013-02-16 05:54:00